Photometre #342[Polarized_P] Lille AOT

File : 20190928_342.hum

28/09/2019,06:39:07,TEMP=13.6,BA=5.64,STAT.A=Abs.,ExtBa=12.02
28/09/2019,06:43:17,TEMP=13.8,BA=5.52,STAT.A=Abs.,ExtBa=12.13
28/09/2019,06:48:07,TEMP=13.8,BA=5.52,STAT.A=Abs.,ExtBa=12.11
28/09/2019,06:53:53,TEMP=13.8,BA=5.60,STAT.A=Abs.,ExtBa=12.11
28/09/2019,07:00:51,TEMP=13.9,BA=5.64,STAT.A=Abs.,ExtBa=12.10
28/09/2019,07:09:30,TEMP=14.1,BA=5.64,STAT.A=Abs.,ExtBa=12.11
28/09/2019,07:20:29,TEMP=14.5,BA=5.64,STAT.B=Abs.,ExtBa=12.10
28/09/2019,07:27:33,TEMP=14.8,BA=5.64,STAT.A=Abs.,ExtBa=11.98
28/09/2019,07:31:44,TEMP=14.8,BA=5.60,STAT.A=Abs.,ExtBa=12.02
28/09/2019,07:38:30,TEMP=15.0,BA=5.60,STAT.A=Abs.,ExtBa=12.04
28/09/2019,07:46:14,TEMP=15.1,BA=5.52,STAT.A=Abs.,ExtBa=12.05
28/09/2019,07:54:54,TEMP=15.2,BA=5.52,STAT.h
28/09/2019,08:05:47,TEMP=15.8,BA=5.64,STAT.A=Abs.,ExtBa=12.08
28/09/2019,08:18:27,TEMP=16.2,BA=5.64,STAT.A=Abs.,ExtBa=12.08
28/09/2019,08:34:00,TEMP=16.1,BA=5.64,STAT.A=Abs.,ExtBa=12.09
28/09/2019,08:38:43,TEMP=15.9,BA=5.64,STAT.F
28/09/2019,08:53:41,TEMP=15.7,BA=5.64,STAT.D=Abs.,ExtBa=12.09
28/09/2019,09:08:41,TEMP=16.9,BA=5.64,STAT.D=Abs.,ExtBa=12.10
28/09/2019,09:23:41,TEMP=16.8,BA=5.64,STAT.D=Abs.,ExtBa=12.08
28/09/2019,09:38:43,TEMP=16.7,BA=5.64,STAT.F
28/09/2019,09:56:30,TEMP=16.8,BA=5.64,STAT.h
28/09/2019,10:08:42,TEMP=16.6,BA=5.64,STAT.D=Abs.,ExtBa=12.10
28/09/2019,10:23:23,TEMP=16.7,BA=5.64,STAT.h
28/09/2019,10:23:24,TEMP=16.7,BA=5.64,STAT.h
28/09/2019,10:38:43,TEMP=15.3,BA=5.64,STAT.F
28/09/2019,10:53:23,TEMP=16.3,BA=5.64,STAT.h
28/09/2019,10:53:24,TEMP=16.3,BA=5.64,STAT.h
28/09/2019,11:08:23,TEMP=16.3,BA=5.64,STAT.h
28/09/2019,11:08:24,TEMP=16.3,BA=5.64,STAT.h
28/09/2019,11:23:23,TEMP=16.3,BA=5.64,STAT.h
28/09/2019,11:23:24,TEMP=16.3,BA=5.64,STAT.h
28/09/2019,11:38:23,TEMP=16.3,BA=5.64,STAT.h
28/09/2019,11:38:24,TEMP=16.3,BA=5.64,STAT.h
28/09/2019,11:53:23,TEMP=16.3,BA=5.64,STAT.h
28/09/2019,11:53:24,TEMP=16.3,BA=5.64,STAT.h
28/09/2019,12:08:23,TEMP=16.3,BA=5.64,STAT.h
28/09/2019,12:08:24,TEMP=16.3,BA=5.64,STAT.h
28/09/2019,12:23:23,TEMP=16.3,BA=5.64,STAT.h
28/09/2019,12:23:24,TEMP=16.3,BA=5.64,STAT.h
28/09/2019,12:38:23,TEMP=16.3,BA=5.64,STAT.h
28/09/2019,12:38:24,TEMP=16.3,BA=5.64,STAT.h
28/09/2019,12:53:42,TEMP=17.8,BA=5.64,STAT.D=Abs.,ExtBa=12.09
28/09/2019,13:08:23,TEMP=18.0,BA=5.64,STAT.h
28/09/2019,13:08:24,TEMP=18.0,BA=5.64,STAT.h
28/09/2019,13:23:23,TEMP=18.0,BA=5.64,STAT.h
28/09/2019,13:23:24,TEMP=18.0,BA=5.64,STAT.h
28/09/2019,13:38:43,TEMP=16.6,BA=5.64,STAT.F
28/09/2019,13:53:40,TEMP=17.1,BA=5.60,STAT.D=Abs.,ExtBa=12.03
28/09/2019,14:08:23,TEMP=17.1,BA=5.60,STAT.h
28/09/2019,14:08:24,TEMP=17.1,BA=5.60,STAT.h
28/09/2019,14:23:41,TEMP=15.6,BA=5.60,STAT.D=Abs.,ExtBa=12.06
28/09/2019,14:38:43,TEMP=17.4,BA=5.64,STAT.F
28/09/2019,14:52:23,TEMP=18.9,BA=5.48,STAT.A=Abs.,ExtBa=11.94
28/09/2019,14:58:59,TEMP=18.0,BA=5.48,STAT.A=Abs.,ExtBa=11.99
28/09/2019,15:11:29,TEMP=18.0,BA=5.60,STAT.h
28/09/2019,15:11:33,TEMP=18.0,BA=5.60,STAT.h
28/09/2019,15:22:10,TEMP=17.5,BA=5.60,STAT.C=Abs.,ExtBa=12.00
28/09/2019,15:31:10,TEMP=17.5,BA=5.60,STAT.A=Abs.,ExtBa=12.01
28/09/2019,15:38:46,TEMP=17.5,BA=5.60,STAT.h
28/09/2019,15:45:21,TEMP=17.5,BA=5.60,STAT.h
28/09/2019,15:45:22,TEMP=17.5,BA=5.60,STAT.h
28/09/2019,15:51:18,TEMP=17.5,BA=5.60,STAT.h
28/09/2019,15:51:19,TEMP=17.5,BA=5.60,STAT.h
28/09/2019,15:56:55,TEMP=14.6,BA=5.60,STAT.B=Abs.,ExtBa=12.01
28/09/2019,16:07:56,TEMP=14.6,BA=5.60,STAT.A=Abs.,ExtBa=12.02
28/09/2019,16:16:35,TEMP=15.0,BA=5.56,STAT.A=Abs.,ExtBa=12.01
28/09/2019,16:23:33,TEMP=15.3,BA=5.60,STAT.A=Abs.,ExtBa=11.97
28/09/2019,16:29:15,TEMP=15.4,BA=5.60,STAT.A=Abs.,ExtBa=11.96
28/09/2019,16:34:05,TEMP=15.5,BA=5.48,STAT.A=Abs.,ExtBa=11.96
28/09/2019,16:38:13,TEMP=15.6,BA=5.48,STAT.A=Abs.,ExtBa=11.93